createdAt,value
2024-03-19T00:00:22.221Z,59.41
2024-03-19T00:01:21.651Z,59.66
2024-03-19T00:02:21.808Z,59.32
2024-03-19T00:03:21.893Z,59.55
2024-03-19T00:04:22.013Z,59.49
2024-03-19T00:05:22.042Z,59.48
2024-03-19T00:06:22.052Z,59.89
2024-03-19T00:07:22.180Z,59.86
2024-03-19T00:08:22.168Z,59.69
2024-03-19T00:09:22.289Z,60.02
2024-03-19T00:10:22.271Z,59.91
2024-03-19T00:11:22.381Z,59.90
2024-03-19T00:12:22.505Z,60.01
2024-03-19T00:13:22.540Z,59.96
2024-03-19T00:14:22.627Z,59.87
2024-03-19T00:15:22.736Z,59.71
2024-03-19T00:16:22.835Z,60.01
2024-03-19T00:17:22.983Z,60.26
2024-03-19T00:18:23.106Z,60.49
2024-03-19T00:19:23.088Z,60.26
2024-03-19T00:20:23.139Z,59.98
2024-03-19T00:21:23.180Z,59.67
2024-03-19T00:22:23.250Z,60.64
2024-03-19T00:23:23.289Z,60.74
2024-03-19T00:24:23.300Z,60.92
2024-03-19T00:25:23.339Z,62.22
2024-03-19T00:26:23.333Z,62.60
2024-03-19T00:27:23.443Z,62.30
2024-03-19T00:28:23.441Z,61.43
2024-03-19T00:29:23.534Z,61.02
2024-03-19T00:30:23.548Z,60.70
2024-03-19T00:31:23.584Z,60.32
2024-03-19T00:32:23.678Z,60.02
2024-03-19T00:33:23.773Z,60.02
2024-03-19T00:34:23.870Z,60.02
2024-03-19T00:35:23.992Z,60.03
2024-03-19T00:36:24.073Z,59.97
2024-03-19T00:37:24.184Z,60.04
2024-03-19T00:38:24.227Z,59.87
2024-03-19T00:39:24.419Z,59.73
2024-03-19T00:40:24.526Z,59.77
2024-03-19T00:41:24.532Z,59.73
2024-03-19T00:42:24.640Z,59.88
2024-03-19T00:43:24.647Z,60.04
2024-03-19T00:44:24.681Z,60.37
2024-03-19T00:45:24.733Z,60.39
2024-03-19T00:46:24.773Z,60.41
2024-03-19T00:47:24.871Z,60.51
2024-03-19T00:48:24.867Z,60.87
2024-03-19T00:49:24.907Z,61.06
2024-03-19T00:50:24.934Z,61.26
2024-03-19T00:51:25.113Z,61.14
2024-03-19T00:52:25.159Z,61.16
2024-03-19T00:53:25.298Z,60.38
2024-03-19T00:54:25.379Z,60.28
2024-03-19T00:55:25.487Z,60.10
2024-03-19T00:56:25.579Z,59.51
2024-03-19T00:57:25.681Z,59.39
2024-03-19T00:58:25.782Z,59.53
2024-03-19T00:59:25.888Z,59.64
2024-03-19T01:00:26.003Z,59.83
2024-03-19T01:01:26.138Z,60.05
2024-03-19T01:02:26.213Z,60.59
2024-03-19T01:03:26.339Z,60.42
2024-03-19T01:04:29.540Z,60.56
2024-03-19T01:05:26.412Z,60.82
2024-03-19T01:06:26.481Z,60.67
2024-03-19T01:07:26.524Z,61.41
2024-03-19T01:08:26.561Z,61.24
2024-03-19T01:09:26.588Z,61.53
2024-03-19T01:10:26.665Z,61.27
2024-03-19T01:11:26.692Z,61.30
2024-03-19T01:12:26.768Z,60.86
2024-03-19T01:13:26.789Z,60.65
2024-03-19T01:14:26.717Z,60.60
2024-03-19T01:15:26.813Z,60.48
2024-03-19T01:16:26.891Z,60.49
2024-03-19T01:17:26.861Z,60.60
2024-03-19T01:18:26.925Z,60.18
2024-03-19T01:19:26.923Z,60.34
2024-03-19T01:20:26.949Z,60.30
2024-03-19T01:21:26.976Z,59.83
2024-03-19T01:22:27.041Z,59.82
2024-03-19T01:23:27.053Z,59.76
2024-03-19T01:24:27.082Z,59.92
2024-03-19T01:25:27.069Z,59.51
2024-03-19T01:26:27.127Z,60.07
2024-03-19T01:27:27.208Z,59.96
2024-03-19T01:28:27.223Z,59.77
2024-03-19T01:29:27.235Z,60.03
2024-03-19T01:30:27.261Z,59.83
2024-03-19T01:31:27.350Z,59.80
2024-03-19T01:32:27.382Z,59.66
2024-03-19T01:33:27.360Z,59.33
2024-03-19T01:34:27.435Z,59.56
2024-03-19T01:35:27.475Z,59.43
2024-03-19T01:36:27.499Z,59.44
2024-03-19T01:37:27.583Z,59.45
2024-03-19T01:38:27.570Z,59.70
2024-03-19T01:39:27.609Z,59.42
2024-03-19T01:40:27.605Z,59.53
2024-03-19T01:41:27.641Z,59.06
2024-03-19T01:42:27.640Z,58.53
2024-03-19T01:43:27.654Z,58.48
2024-03-19T01:44:27.648Z,58.18
2024-03-19T01:45:27.739Z,58.84
2024-03-19T01:46:27.778Z,58.71
2024-03-19T01:47:27.865Z,58.51
2024-03-19T01:48:27.877Z,58.72
2024-03-19T01:49:27.906Z,58.59
2024-03-19T01:50:27.875Z,58.36
2024-03-19T01:51:27.906Z,58.48
2024-03-19T01:52:28.021Z,58.18
2024-03-19T01:53:28.081Z,58.27
2024-03-19T01:54:28.152Z,58.48
2024-03-19T01:55:28.245Z,58.79
2024-03-19T01:56:28.315Z,58.92
2024-03-19T01:57:28.543Z,59.06
2024-03-19T01:58:28.476Z,58.69
2024-03-19T01:59:28.587Z,58.82
2024-03-19T02:00:28.578Z,59.06
2024-03-19T02:01:28.647Z,59.29
2024-03-19T02:02:28.679Z,59.45
2024-03-19T02:03:28.711Z,59.10
2024-03-19T02:04:28.717Z,58.81
2024-03-19T02:05:28.808Z,58.95
2024-03-19T02:06:28.826Z,59.42
2024-03-19T02:07:28.892Z,58.97
2024-03-19T02:08:28.935Z,59.54
2024-03-19T02:09:29.066Z,59.65
2024-03-19T02:10:29.105Z,60.10
2024-03-19T02:11:29.177Z,60.30
2024-03-19T02:12:29.184Z,60.43
2024-03-19T02:13:29.284Z,60.99
2024-03-19T02:14:29.272Z,61.49
2024-03-19T02:15:29.301Z,61.27
2024-03-19T02:16:29.388Z,61.27
2024-03-19T02:17:29.571Z,60.80
2024-03-19T02:18:29.604Z,60.68
2024-03-19T02:19:30.237Z,60.78
2024-03-19T02:20:29.762Z,60.67
2024-03-19T02:21:29.849Z,60.46
2024-03-19T02:22:29.953Z,60.47
2024-03-19T02:23:30.044Z,60.27
2024-03-19T02:24:30.073Z,60.36
2024-03-19T02:25:30.095Z,60.57
2024-03-19T02:26:30.261Z,60.80
2024-03-19T02:27:30.286Z,60.56
2024-03-19T02:28:30.361Z,60.67
2024-03-19T02:29:30.417Z,61.38
2024-03-19T02:30:30.476Z,61.37
2024-03-19T02:31:30.538Z,61.20
2024-03-19T02:32:30.692Z,61.33
2024-03-19T02:33:30.684Z,61.29
2024-03-19T02:34:30.739Z,61.07
2024-03-19T02:35:30.790Z,61.29
2024-03-19T02:36:30.899Z,60.88
2024-03-19T02:37:30.960Z,60.84
2024-03-19T02:38:31.102Z,61.02
2024-03-19T02:39:31.174Z,60.86
2024-03-19T02:40:31.237Z,60.86
2024-03-19T02:41:31.326Z,61.04
2024-03-19T02:42:31.524Z,61.24
2024-03-19T02:43:31.581Z,61.06
2024-03-19T02:44:31.652Z,60.64
2024-03-19T02:45:31.737Z,60.48
2024-03-19T02:46:31.843Z,60.47
2024-03-19T02:47:31.924Z,60.55
2024-03-19T02:48:32.065Z,60.74
2024-03-19T02:49:32.148Z,61.06
2024-03-19T02:50:32.223Z,60.77
2024-03-19T02:51:32.431Z,60.70
2024-03-19T02:52:32.420Z,61.60
2024-03-19T02:53:32.532Z,62.11
2024-03-19T02:54:32.615Z,61.45
2024-03-19T02:55:32.743Z,61.00
2024-03-19T02:56:32.832Z,60.70
2024-03-19T02:57:32.964Z,60.76
2024-03-19T02:58:33.049Z,60.67
2024-03-19T02:59:33.146Z,60.15
2024-03-19T03:00:33.212Z,60.12
2024-03-19T03:01:33.281Z,60.43
2024-03-19T03:02:33.403Z,60.47
2024-03-19T03:03:33.420Z,60.40
2024-03-19T03:04:33.512Z,60.56
2024-03-19T03:05:33.533Z,60.46
2024-03-19T03:06:33.662Z,60.24
2024-03-19T03:07:33.789Z,60.30
2024-03-19T03:08:33.867Z,60.33
2024-03-19T03:09:33.972Z,60.22
2024-03-19T03:10:34.086Z,60.30
2024-03-19T03:11:34.205Z,59.95
2024-03-19T03:12:34.342Z,59.89
2024-03-19T03:13:34.427Z,59.66
2024-03-19T03:14:34.474Z,59.83
2024-03-19T03:15:34.543Z,60.49
2024-03-19T03:16:34.643Z,61.95
2024-03-19T03:17:34.815Z,61.54
2024-03-19T03:18:34.852Z,61.44
2024-03-19T03:19:34.861Z,61.34
2024-03-19T03:20:34.924Z,61.32
2024-03-19T03:21:34.985Z,61.15
2024-03-19T03:22:35.029Z,61.46
2024-03-19T03:23:35.068Z,61.55
2024-03-19T03:24:35.099Z,61.78
2024-03-19T03:25:35.212Z,61.37
2024-03-19T03:26:35.181Z,60.94
2024-03-19T03:27:35.315Z,61.22
2024-03-19T03:28:35.359Z,61.04
2024-03-19T03:29:35.478Z,60.99
2024-03-19T03:30:35.554Z,60.64
2024-03-19T03:31:35.674Z,60.40
2024-03-19T03:32:35.682Z,60.29
2024-03-19T03:33:35.720Z,60.20
2024-03-19T03:34:35.793Z,60.23
2024-03-19T03:35:35.814Z,60.01
2024-03-19T03:36:35.892Z,60.21
2024-03-19T03:37:35.968Z,60.03
2024-03-19T03:38:36.008Z,59.78
2024-03-19T03:39:36.002Z,59.76
2024-03-19T03:40:36.113Z,59.70
2024-03-19T03:41:36.123Z,59.75
2024-03-19T03:42:36.494Z,59.64
2024-03-19T03:43:36.265Z,59.46
2024-03-19T03:44:36.169Z,59.44
2024-03-19T03:45:36.252Z,59.52
2024-03-19T03:46:36.303Z,59.57
2024-03-19T03:47:36.309Z,59.39
2024-03-19T03:48:36.332Z,58.99
2024-03-19T03:49:36.335Z,58.96
2024-03-19T03:50:36.358Z,58.97
2024-03-19T03:51:36.405Z,59.19
2024-03-19T03:52:36.424Z,59.54
2024-03-19T03:53:36.514Z,59.82
2024-03-19T03:54:36.482Z,58.91
2024-03-19T03:55:36.511Z,58.37
2024-03-19T03:56:36.538Z,57.83
2024-03-19T03:57:36.576Z,57.79
2024-03-19T03:58:36.627Z,58.10
2024-03-19T03:59:36.734Z,57.79
2024-03-19T04:00:37.299Z,57.63
2024-03-19T04:01:36.725Z,57.64
2024-03-19T04:02:36.774Z,57.97
2024-03-19T04:03:36.789Z,57.87
2024-03-19T04:04:36.856Z,57.79
2024-03-19T04:05:36.871Z,58.25
2024-03-19T04:06:36.901Z,58.23
2024-03-19T04:07:36.912Z,57.78
2024-03-19T04:08:36.878Z,57.31
2024-03-19T04:09:36.938Z,57.18
2024-03-19T04:10:36.945Z,56.44
2024-03-19T04:11:36.998Z,56.58
2024-03-19T04:12:37.119Z,56.14
2024-03-19T04:13:37.169Z,56.16
2024-03-19T04:14:37.226Z,56.34
2024-03-19T04:15:37.326Z,56.29
2024-03-19T04:16:37.344Z,56.39
2024-03-19T04:17:37.415Z,56.31
2024-03-19T04:18:37.457Z,56.45
2024-03-19T04:19:37.449Z,56.20
2024-03-19T04:20:37.443Z,56.13
2024-03-19T04:21:37.438Z,55.87
2024-03-19T04:22:37.526Z,55.96
2024-03-19T04:23:37.537Z,56.65
2024-03-19T04:24:37.607Z,57.21
2024-03-19T04:25:38.178Z,57.57
2024-03-19T04:26:37.686Z,58.54
2024-03-19T04:27:37.719Z,58.26
2024-03-19T04:28:37.773Z,58.54
2024-03-19T04:29:37.790Z,58.35
2024-03-19T04:30:37.799Z,58.08
2024-03-19T04:31:37.863Z,58.45
2024-03-19T04:32:37.952Z,57.96
2024-03-19T04:33:38.072Z,58.13
2024-03-19T04:34:37.950Z,58.39
2024-03-19T04:35:37.981Z,58.72
2024-03-19T04:36:38.069Z,59.03
2024-03-19T04:37:38.084Z,59.07
2024-03-19T04:38:38.122Z,59.39
2024-03-19T04:39:38.173Z,59.06
2024-03-19T04:40:38.195Z,59.10
2024-03-19T04:41:38.198Z,59.39
2024-03-19T04:42:38.340Z,59.01
2024-03-19T04:43:38.343Z,59.34
2024-03-19T04:44:38.427Z,59.16
2024-03-19T04:45:38.545Z,59.01
2024-03-19T04:46:38.615Z,58.79
2024-03-19T04:47:38.685Z,58.88
2024-03-19T04:48:38.767Z,58.73
2024-03-19T04:49:38.695Z,58.79
2024-03-19T04:50:38.790Z,59.11
2024-03-19T04:51:38.816Z,58.94
2024-03-19T04:52:39.001Z,58.83
2024-03-19T04:53:38.908Z,58.84
2024-03-19T04:54:38.886Z,59.28
2024-03-19T04:55:38.916Z,60.07
2024-03-19T04:56:38.954Z,60.34
2024-03-19T04:57:39.026Z,60.13
2024-03-19T04:58:38.983Z,59.92
2024-03-19T04:59:39.013Z,59.65
2024-03-19T05:00:39.090Z,59.54
2024-03-19T05:01:46.862Z,59.27
2024-03-19T05:02:46.901Z,59.18
2024-03-19T05:03:46.837Z,59.02
2024-03-19T05:04:46.851Z,59.13
2024-03-19T05:05:46.860Z,59.16
2024-03-19T05:06:46.762Z,59.05
2024-03-19T05:07:46.867Z,59.10
2024-03-19T05:08:46.770Z,59.34
2024-03-19T05:09:46.795Z,59.63
2024-03-19T05:10:46.829Z,59.04
2024-03-19T05:11:46.775Z,58.73
2024-03-19T05:12:46.820Z,58.55
2024-03-19T05:13:46.831Z,58.72
2024-03-19T05:14:46.840Z,58.67
2024-03-19T05:15:46.867Z,59.38
2024-03-19T05:16:46.843Z,59.43
2024-03-19T05:17:46.835Z,59.38
2024-03-19T05:18:46.827Z,59.68
2024-03-19T05:19:46.875Z,59.86
2024-03-19T05:20:47.789Z,59.93
2024-03-19T05:21:49.132Z,59.96
2024-03-19T05:22:46.984Z,59.82
2024-03-19T05:23:46.948Z,60.07
2024-03-19T05:24:46.892Z,60.85
2024-03-19T05:25:46.890Z,60.09
2024-03-19T05:26:46.925Z,59.85
2024-03-19T05:27:47.039Z,60.06
2024-03-19T05:28:46.975Z,60.33
2024-03-19T05:29:46.971Z,59.92
2024-03-19T05:30:47.027Z,59.75
2024-03-19T05:31:47.045Z,59.81
2024-03-19T05:32:47.101Z,59.71
2024-03-19T05:33:47.060Z,59.66
2024-03-19T05:34:47.378Z,59.93
2024-03-19T05:35:47.081Z,60.09
2024-03-19T05:36:47.042Z,59.98
2024-03-19T05:37:47.058Z,60.21
2024-03-19T05:38:47.127Z,60.33
2024-03-19T05:39:47.119Z,60.25
2024-03-19T05:40:47.107Z,60.28
2024-03-19T05:41:47.108Z,60.67
2024-03-19T05:42:47.132Z,60.58
2024-03-19T05:43:47.045Z,60.94
2024-03-19T05:44:47.170Z,60.66
2024-03-19T05:45:47.067Z,60.45
2024-03-19T05:46:47.106Z,60.35
2024-03-19T05:47:47.216Z,60.36
2024-03-19T05:48:47.125Z,60.78
2024-03-19T05:49:47.136Z,60.52
2024-03-19T05:50:47.134Z,60.75
2024-03-19T05:51:47.050Z,61.11
2024-03-19T05:52:47.113Z,61.35
2024-03-19T05:53:47.160Z,60.87
2024-03-19T05:54:47.208Z,60.64
2024-03-19T05:55:47.244Z,60.30
2024-03-19T05:56:47.279Z,60.40
2024-03-19T05:57:47.400Z,60.48
2024-03-19T05:58:47.431Z,60.25
2024-03-19T05:59:47.480Z,59.91
2024-03-19T06:02:16.449Z,59.31
2024-03-19T06:02:53.821Z,59.31
2024-03-19T06:03:53.817Z,58.99
2024-03-19T06:04:53.899Z,59.06
2024-03-19T06:05:53.811Z,58.99
2024-03-19T06:06:53.817Z,59.07
2024-03-19T06:07:53.785Z,58.75
2024-03-19T06:08:53.802Z,58.97
2024-03-19T06:09:53.782Z,59.47
2024-03-19T06:10:53.886Z,60.02
2024-03-19T06:11:53.772Z,59.91
2024-03-19T06:12:53.850Z,59.25
2024-03-19T06:13:53.745Z,59.01
2024-03-19T06:14:53.789Z,59.20
2024-03-19T06:15:53.764Z,58.80
2024-03-19T06:16:53.796Z,58.81
2024-03-19T06:17:53.772Z,58.41
2024-03-19T06:18:53.801Z,58.31
2024-03-19T06:19:53.823Z,58.12
2024-03-19T06:20:53.745Z,58.53
2024-03-19T06:22:12.523Z,58.61
2024-03-19T06:23:12.484Z,58.35
2024-03-19T06:24:12.488Z,58.07
2024-03-19T06:25:12.506Z,58.30
2024-03-19T06:26:12.495Z,58.15
2024-03-19T06:27:12.498Z,58.01
2024-03-19T06:28:12.495Z,57.70
2024-03-19T06:29:12.519Z,57.97
2024-03-19T06:30:12.531Z,57.98
2024-03-19T06:31:12.462Z,57.92
2024-03-19T06:32:12.441Z,57.71
2024-03-19T06:33:12.552Z,57.27
2024-03-19T06:34:12.457Z,57.58
2024-03-19T06:35:12.453Z,57.98
2024-03-19T06:36:12.459Z,57.86
2024-03-19T06:37:12.438Z,58.15
2024-03-19T06:38:12.473Z,57.83
2024-03-19T06:39:12.527Z,58.33
2024-03-19T06:40:12.640Z,58.71
2024-03-19T06:41:12.609Z,58.35
2024-03-19T06:42:12.598Z,58.10
2024-03-19T06:43:12.626Z,57.83
2024-03-19T06:44:12.581Z,57.92
2024-03-19T06:45:12.638Z,57.85
2024-03-19T06:46:35.323Z,58.54
2024-03-19T06:47:12.685Z,57.96
2024-03-19T06:48:12.691Z,57.79
2024-03-19T06:49:12.681Z,57.67
2024-03-19T06:50:12.687Z,57.93
2024-03-19T06:51:12.999Z,59.13
2024-03-19T06:52:12.811Z,59.88
2024-03-19T06:53:13.036Z,59.26
2024-03-19T06:54:12.715Z,59.35
2024-03-19T06:55:12.640Z,58.69
2024-03-19T06:56:12.647Z,58.64
2024-03-19T06:57:12.661Z,58.47
2024-03-19T06:58:12.649Z,58.18
2024-03-19T06:59:12.639Z,58.19
2024-03-19T07:00:12.665Z,58.51
2024-03-19T07:01:12.577Z,57.84
2024-03-19T07:02:12.690Z,58.02
2024-03-19T07:03:12.889Z,57.95
2024-03-19T07:04:13.591Z,57.99
2024-03-19T07:05:12.595Z,57.97
2024-03-19T07:06:12.593Z,58.22
2024-03-19T07:07:12.617Z,58.29
2024-03-19T07:08:12.632Z,57.70
2024-03-19T07:09:12.544Z,57.80
2024-03-19T07:10:12.633Z,57.32
2024-03-19T07:11:13.743Z,56.60
2024-03-19T07:12:12.666Z,56.73
2024-03-19T07:13:12.769Z,57.08
2024-03-19T07:14:12.777Z,57.13
2024-03-19T07:15:12.897Z,56.98
2024-03-19T07:16:12.796Z,58.13
2024-03-19T07:17:12.792Z,57.73
2024-03-19T07:18:12.798Z,57.10
2024-03-19T07:19:12.816Z,57.07
2024-03-19T07:20:12.828Z,56.87
2024-03-19T07:21:12.703Z,57.21
2024-03-19T07:22:12.714Z,56.92
2024-03-19T07:23:12.782Z,56.49
2024-03-19T07:24:12.844Z,57.00
2024-03-19T07:25:12.847Z,56.68
2024-03-19T07:26:13.536Z,55.95
2024-03-19T07:27:12.967Z,55.62
2024-03-19T07:28:13.076Z,55.76
2024-03-19T07:29:13.089Z,55.63
2024-03-19T07:30:13.122Z,55.34
2024-03-19T07:31:13.088Z,55.98
2024-03-19T07:32:13.201Z,55.94
2024-03-19T07:33:13.439Z,56.40
2024-03-19T07:34:13.317Z,55.96
2024-03-19T07:35:13.334Z,55.82
2024-03-19T07:36:13.399Z,55.60
2024-03-19T07:37:13.522Z,55.35
2024-03-19T07:38:15.688Z,55.32
2024-03-19T07:39:13.384Z,55.14
2024-03-19T07:40:13.787Z,55.44
2024-03-19T07:41:13.449Z,55.20
2024-03-19T07:42:13.774Z,55.35
2024-03-19T07:43:13.809Z,55.40
2024-03-19T07:44:13.678Z,55.12
2024-03-19T07:45:13.438Z,55.46
2024-03-19T07:46:13.382Z,55.82
2024-03-19T07:47:13.387Z,55.94
2024-03-19T07:48:13.505Z,55.37
2024-03-19T07:49:13.458Z,55.76
2024-03-19T07:50:13.436Z,55.36
2024-03-19T07:51:13.520Z,55.23
2024-03-19T07:52:13.609Z,54.58
2024-03-19T07:53:13.697Z,54.08
2024-03-19T07:54:13.550Z,54.90
2024-03-19T07:55:13.590Z,55.69
2024-03-19T07:56:13.677Z,56.21
2024-03-19T07:57:14.110Z,55.31
2024-03-19T07:58:13.810Z,55.31
2024-03-19T07:59:13.711Z,55.31
2024-03-19T08:00:13.715Z,56.49
2024-03-19T08:01:13.642Z,56.50
2024-03-19T08:02:13.742Z,56.01
2024-03-19T08:03:13.832Z,56.06
2024-03-19T08:04:13.860Z,55.45
2024-03-19T08:05:13.848Z,55.48
2024-03-19T08:06:13.845Z,55.17
2024-03-19T08:07:14.229Z,54.60
2024-03-19T08:08:14.158Z,54.44
2024-03-19T08:09:14.093Z,54.59
2024-03-19T08:10:14.703Z,54.56
2024-03-19T08:11:15.052Z,54.22
2024-03-19T08:12:14.407Z,54.56
2024-03-19T08:13:14.116Z,54.37
2024-03-19T08:14:14.317Z,53.54
2024-03-19T08:15:14.192Z,52.97
2024-03-19T08:16:14.237Z,52.78
2024-03-19T08:17:14.235Z,52.92
2024-03-19T08:18:14.354Z,53.05
2024-03-19T08:19:14.353Z,53.16
2024-03-19T08:20:14.439Z,53.12
2024-03-19T08:21:14.482Z,53.13
2024-03-19T08:22:14.479Z,54.21
2024-03-19T08:23:14.377Z,54.02
2024-03-19T08:24:14.399Z,52.81
2024-03-19T08:25:14.502Z,53.12
2024-03-19T08:26:14.502Z,53.08
2024-03-19T08:27:14.605Z,52.84
2024-03-19T08:28:15.051Z,52.47
2024-03-19T08:29:14.714Z,51.91
2024-03-19T08:30:14.531Z,51.79
2024-03-19T08:31:15.071Z,51.31
2024-03-19T08:32:14.657Z,51.72
2024-03-19T08:33:14.634Z,51.16
2024-03-19T08:34:15.568Z,50.79
2024-03-19T08:35:14.671Z,50.04
2024-03-19T08:36:14.636Z,50.69
2024-03-19T08:37:14.683Z,50.95
2024-03-19T08:38:14.680Z,50.96
2024-03-19T08:39:15.208Z,50.91
2024-03-19T08:40:14.762Z,50.77
2024-03-19T08:41:15.010Z,50.94
2024-03-19T08:42:16.058Z,50.86
2024-03-19T08:43:14.932Z,50.32
2024-03-19T08:44:15.253Z,49.96
2024-03-19T08:45:14.831Z,49.38
2024-03-19T08:46:14.830Z,49.02
2024-03-19T08:47:14.893Z,48.76
2024-03-19T08:48:14.860Z,49.21
2024-03-19T08:49:14.978Z,49.30
2024-03-19T08:50:15.124Z,49.31
2024-03-19T08:51:14.988Z,50.18
2024-03-19T08:53:00.787Z,48.77
2024-03-19T08:54:00.800Z,48.92
2024-03-19T08:55:00.785Z,48.67
2024-03-19T08:56:00.797Z,48.73
2024-03-19T08:57:00.720Z,48.00
2024-03-19T08:58:00.791Z,47.96
2024-03-19T08:59:00.733Z,48.09
2024-03-19T09:00:00.710Z,48.53
2024-03-19T09:01:00.646Z,47.87
2024-03-19T09:02:00.703Z,48.46
2024-03-19T09:03:00.620Z,47.68
2024-03-19T09:04:01.030Z,48.06
2024-03-19T09:05:00.569Z,47.84
2024-03-19T09:06:00.618Z,47.71
2024-03-19T09:07:00.659Z,47.60
2024-03-19T09:08:00.555Z,47.44
2024-03-19T09:09:00.661Z,48.03
2024-03-19T09:10:00.523Z,47.87
2024-03-19T09:11:00.556Z,47.68
2024-03-19T09:12:00.600Z,47.92
2024-03-19T09:13:00.555Z,47.55
2024-03-19T09:14:00.512Z,47.14
2024-03-19T09:15:00.414Z,47.20
2024-03-19T09:16:00.335Z,47.44
2024-03-19T09:17:00.427Z,47.07
2024-03-19T09:18:00.723Z,47.38
2024-03-19T09:19:01.245Z,46.61
2024-03-19T09:20:00.718Z,46.22
2024-03-19T09:21:01.065Z,45.88
2024-03-19T09:22:00.379Z,45.99
2024-03-19T09:23:00.264Z,46.53
2024-03-19T09:24:00.367Z,46.47
2024-03-19T09:25:00.270Z,46.10
2024-03-19T09:26:00.690Z,45.96
2024-03-19T09:27:00.674Z,45.78
2024-03-19T09:28:00.519Z,47.44
2024-03-19T09:29:00.400Z,47.20
2024-03-19T09:30:01.107Z,47.21
2024-03-19T09:31:00.458Z,47.49
2024-03-19T09:32:00.432Z,47.05
2024-03-19T09:33:00.434Z,46.91
2024-03-19T09:34:00.359Z,46.15
2024-03-19T09:35:00.344Z,46.05
2024-03-19T09:36:00.500Z,45.59
2024-03-19T09:37:00.356Z,45.26
2024-03-19T09:38:00.349Z,44.25
2024-03-19T09:39:00.570Z,44.49
2024-03-19T09:40:00.664Z,43.43
2024-03-19T09:41:00.261Z,43.12
2024-03-19T09:42:00.297Z,41.58
2024-03-19T09:43:00.407Z,41.83
2024-03-19T09:44:00.410Z,40.49
2024-03-19T09:45:00.703Z,40.51
2024-03-19T09:46:00.396Z,40.83
2024-03-19T09:47:00.413Z,41.10
2024-03-19T09:48:00.419Z,41.29
2024-03-19T09:49:00.447Z,42.06
2024-03-19T09:50:00.426Z,42.15
2024-03-19T09:51:00.372Z,41.69
2024-03-19T09:52:00.363Z,41.27
2024-03-19T09:53:00.272Z,40.92
2024-03-19T09:54:00.258Z,40.44
2024-03-19T09:55:00.616Z,40.38
2024-03-19T09:56:00.286Z,40.55
2024-03-19T09:57:00.197Z,40.51
2024-03-19T09:58:00.195Z,40.53
2024-03-19T09:59:00.301Z,40.47
2024-03-19T10:00:00.309Z,40.48
2024-03-19T10:01:00.246Z,40.18
2024-03-19T10:02:00.921Z,39.27
2024-03-19T10:03:01.570Z,39.79
2024-03-19T10:04:00.580Z,40.07
2024-03-19T10:05:00.389Z,40.19
2024-03-19T10:06:00.557Z,40.24
2024-03-19T10:07:00.290Z,39.44
2024-03-19T10:08:00.412Z,39.08
2024-03-19T10:09:00.051Z,38.97
2024-03-19T10:10:00.863Z,38.84
2024-03-19T10:10:59.987Z,39.93
2024-03-19T10:12:00.077Z,39.72
2024-03-19T10:13:00.064Z,39.93
2024-03-19T10:13:59.878Z,39.20
2024-03-19T10:14:59.788Z,38.86
2024-03-19T10:16:00.101Z,38.64
2024-03-19T10:16:59.695Z,38.28
2024-03-19T10:17:59.628Z,37.94
2024-03-19T10:19:00.763Z,37.85
2024-03-19T10:19:59.524Z,37.34
2024-03-19T10:20:59.907Z,37.90
2024-03-19T10:21:59.884Z,38.63
2024-03-19T10:22:59.475Z,38.11
2024-03-19T10:23:59.276Z,37.73
2024-03-19T10:24:59.269Z,37.43
2024-03-19T10:25:59.313Z,37.21
2024-03-19T10:26:59.124Z,37.30
2024-03-19T10:27:59.233Z,36.92
2024-03-19T10:28:59.137Z,36.87
2024-03-19T10:29:59.205Z,36.69
2024-03-19T10:30:59.052Z,36.95
2024-03-19T10:32:01.292Z,36.18
2024-03-19T10:33:00.108Z,36.06
2024-03-19T10:34:00.255Z,35.96
2024-03-19T10:34:58.945Z,35.96
2024-03-19T10:35:58.864Z,36.53
2024-03-19T10:36:59.035Z,36.46
2024-03-19T10:37:59.881Z,35.76
2024-03-19T10:38:58.806Z,35.61
2024-03-19T10:39:58.797Z,35.94
2024-03-19T10:40:58.751Z,37.17
2024-03-19T10:41:59.509Z,37.69
2024-03-19T10:42:58.833Z,38.06
2024-03-19T10:43:59.234Z,38.58
2024-03-19T10:44:58.833Z,39.36
2024-03-19T10:45:58.886Z,39.24
2024-03-19T10:46:59.453Z,39.28
2024-03-19T10:47:58.699Z,40.24
2024-03-19T10:48:59.279Z,40.31
2024-03-19T10:49:59.219Z,40.19
2024-03-19T10:50:58.812Z,40.42
2024-03-19T10:52:05.372Z,40.41
2024-03-19T10:52:59.665Z,40.16
2024-03-19T10:53:58.624Z,39.21
2024-03-19T10:54:58.556Z,38.82
2024-03-19T10:55:58.496Z,39.17
2024-03-19T10:56:59.294Z,39.85
2024-03-19T10:57:58.370Z,40.03
2024-03-19T10:58:58.260Z,39.47
2024-03-19T10:59:58.270Z,39.61
2024-03-19T11:00:58.276Z,39.12
2024-03-19T11:01:58.214Z,39.44
2024-03-19T11:02:58.183Z,39.30
2024-03-19T11:03:58.041Z,39.08
2024-03-19T11:04:58.054Z,38.10
2024-03-19T11:05:57.921Z,38.35
2024-03-19T11:06:58.700Z,38.02
2024-03-19T11:07:57.928Z,38.01
2024-03-19T11:08:58.456Z,37.98
2024-03-19T11:09:58.827Z,37.64
2024-03-19T11:10:57.952Z,37.50
2024-03-19T11:11:57.968Z,38.21
2024-03-19T11:12:58.057Z,38.11
2024-03-19T11:13:57.943Z,38.15
2024-03-19T11:14:58.005Z,37.87
2024-03-19T11:15:57.990Z,37.52
2024-03-19T11:16:57.988Z,37.81
2024-03-19T11:17:58.034Z,38.06
2024-03-19T11:18:57.993Z,38.15
2024-03-19T11:19:58.010Z,38.25
2024-03-19T11:20:58.841Z,38.50
2024-03-19T11:21:58.298Z,38.70
2024-03-19T11:22:57.901Z,38.86
2024-03-19T11:23:57.878Z,39.37
2024-03-19T11:24:58.002Z,38.68
2024-03-19T11:25:58.763Z,38.22
2024-03-19T11:26:58.070Z,38.92
2024-03-19T11:27:57.870Z,39.29
2024-03-19T11:28:57.845Z,38.79
2024-03-19T11:29:58.302Z,39.38
2024-03-19T11:30:59.204Z,39.04
2024-03-19T11:31:57.897Z,38.67
2024-03-19T11:32:58.161Z,38.80
2024-03-19T11:33:57.796Z,38.51
2024-03-19T11:34:57.816Z,38.08
2024-03-19T11:35:58.797Z,37.95
2024-03-19T11:36:57.834Z,37.89
2024-03-19T11:37:57.855Z,37.86
2024-03-19T11:38:57.747Z,37.75
2024-03-19T11:39:58.040Z,38.55
2024-03-19T11:40:58.770Z,38.26
2024-03-19T11:41:57.885Z,38.39
2024-03-19T11:42:57.663Z,38.80
2024-03-19T11:43:57.664Z,38.31
2024-03-19T11:44:58.000Z,37.88
2024-03-19T11:45:57.589Z,37.52
2024-03-19T11:46:57.583Z,37.36
2024-03-19T11:47:57.432Z,37.73
2024-03-19T11:48:57.497Z,38.71
2024-03-19T11:49:57.397Z,38.34
2024-03-19T11:50:57.390Z,39.17
2024-03-19T11:51:57.308Z,38.88
2024-03-19T11:52:57.322Z,39.02
2024-03-19T11:53:57.232Z,39.59
2024-03-19T11:54:57.553Z,39.35
2024-03-19T11:55:57.290Z,39.34
2024-03-19T11:56:57.493Z,38.78
2024-03-19T11:57:57.527Z,38.78
2024-03-19T11:58:57.114Z,37.95
2024-03-19T11:59:57.471Z,37.82
2024-03-19T12:00:57.176Z,37.72
2024-03-19T12:01:57.494Z,37.07
2024-03-19T12:02:57.172Z,36.80
2024-03-19T12:03:57.498Z,36.73
2024-03-19T12:04:57.192Z,37.52
2024-03-19T12:05:57.146Z,38.29
2024-03-19T12:06:57.016Z,37.61
2024-03-19T12:07:56.950Z,36.76
2024-03-19T12:08:57.449Z,36.43
2024-03-19T12:09:57.514Z,36.05
2024-03-19T12:10:56.927Z,35.99
2024-03-19T12:11:57.103Z,35.81
2024-03-19T12:12:56.887Z,34.90
2024-03-19T12:13:56.953Z,34.63
2024-03-19T12:14:57.163Z,34.56
2024-03-19T12:15:57.109Z,34.06
2024-03-19T12:16:57.060Z,33.69
2024-03-19T12:17:57.101Z,33.65
2024-03-19T12:18:57.356Z,33.82
2024-03-19T12:19:56.943Z,33.60
2024-03-19T12:20:56.908Z,33.63
2024-03-19T12:21:56.812Z,33.90
2024-03-19T12:22:56.783Z,34.17
2024-03-19T12:23:56.718Z,34.26
2024-03-19T12:24:56.784Z,34.46
2024-03-19T12:25:56.822Z,34.08
2024-03-19T12:26:56.756Z,33.87
2024-03-19T12:27:56.559Z,33.79
2024-03-19T12:28:56.601Z,33.81
2024-03-19T12:29:57.239Z,33.79
2024-03-19T12:30:56.553Z,33.88
2024-03-19T12:31:56.539Z,33.92
2024-03-19T12:32:56.653Z,34.04
2024-03-19T12:33:56.550Z,32.90
2024-03-19T12:34:56.846Z,32.91
2024-03-19T12:35:56.880Z,33.61
2024-03-19T12:36:56.414Z,33.26
2024-03-19T12:37:56.390Z,33.38
2024-03-19T12:38:56.564Z,32.91
2024-03-19T12:39:56.420Z,33.05
2024-03-19T12:40:56.394Z,32.91
2024-03-19T12:41:56.304Z,33.30
2024-03-19T12:42:56.328Z,33.28
2024-03-19T12:43:56.407Z,33.06
2024-03-19T12:44:56.357Z,32.56
2024-03-19T12:45:56.460Z,32.52
2024-03-19T12:46:56.299Z,32.55
2024-03-19T12:47:56.369Z,32.56
2024-03-19T12:48:56.241Z,32.44
2024-03-19T12:49:56.560Z,32.34
2024-03-19T12:50:56.284Z,32.59
2024-03-19T12:51:56.098Z,32.52
2024-03-19T12:52:56.063Z,32.31
2024-03-19T12:53:56.316Z,32.29
2024-03-19T12:54:56.016Z,32.26